Aeroporto :
LOGIN :

Iscrizione | Disclaimer

   EN    FR    IT 

 










Sommario :    VFR   VFR Marginale   IFR   IFR Intensivo   IFR Molto Intensivo
Visibilità : 
Base nubi : 
>= 8 km
>= 3000ft
5 / 8 km
1000 / 3000 ft
1500m / 5 km
500 / 1000 ft
800 / 1500m
200 / 500 ft
< 800m
< 200 ft
Simboli :   Temporali  Nebbia  Neve Forte  Precipitazioni Forti  Vento > 20 kt
SIGMETs :   Varie  Temporali  Ghiacco  Turbolenza  Onda orograficha  Ceneri Vulcaniche






- Altitudine del aeroporto : 1548 ft


LKNA - Náměšť Air Base

ULTIMO METAR :
  • 021900Z 14006KT CAVOK 06/M08 Q1009 NOSIG RMK BLU BLU

METARs OBSOLETI :
  • 021830Z 14005KT CAVOK 07/M09 Q1009 NOSIG RMK BLU BLU
  • 021800Z 14005KT CAVOK 07/M08 Q1009 NOSIG RMK BLU BLU
  • 021730Z 14006KT CAVOK 08/M08 Q1009 NOSIG RMK BLU BLU
  • 021700Z 14007KT CAVOK 09/M08 Q1009 NOSIG RMK BLU BLU
  • 021630Z 14008KT 110V180 CAVOK 09/M08 Q1009 NOSIG RMK BLU BLU

TAF TAF LKNA
Valido dal 02 a 18 ore il 03 a 18 ore UTC


021700Z 0218/0318 15008KT CAVOK
BECMG 0220/0222 VRB02KT
BECMG 0306/0308 27010KT 9999 BKN030
BECMG 0310/0312 32010KT
PROB30
TEMPO 0310/0316 7000 SHRA BKN020



MetMap, La meteo Aeronautica in un colpo d'occhio ! - Copyright ORBIFLY Dicembre 2007 - Disclaimer

ORBIFLY MET'MAP TEAM :

Programmazione e sviluppo : Alexandra Zaïnal
Concezione : Baudouin d'Aumeries
Aiuto per la programmazione : Marc-Olivier Méhu
Supporto tecnico e logistico : Manuel Goepfert
Aiuto per la traduzione : Arnaldo La Scala

Contatto : metmap@orbifly.com




FONTI E CREDITI :

   NOAA